createdAt,value
2022-11-29T00:00:58.425Z,12.57
2022-11-29T00:04:01.665Z,13.02
2022-11-29T00:07:03.907Z,13.52
2022-11-29T00:10:07.192Z,13.45
2022-11-29T00:13:09.982Z,13.68
2022-11-29T00:16:12.591Z,13.37
2022-11-29T00:19:14.874Z,12.52
2022-11-29T00:22:17.446Z,12.63
2022-11-29T00:25:20.357Z,12.73
2022-11-29T00:28:22.973Z,12.00
2022-11-29T00:31:30.434Z,12.40
2022-11-29T00:34:33.109Z,12.32
2022-11-29T00:37:35.446Z,12.23
2022-11-29T00:40:40.404Z,13.38
2022-11-29T00:43:42.626Z,12.27
2022-11-29T00:46:45.200Z,13.05
2022-11-29T00:49:47.466Z,13.65
2022-11-29T00:52:50.048Z,13.45
2022-11-29T00:55:53.131Z,13.30
2022-11-29T00:58:55.988Z,12.60
2022-11-29T01:01:58.249Z,13.35
2022-11-29T01:05:00.804Z,12.43
2022-11-29T01:08:03.901Z,10.63
2022-11-29T01:11:11.499Z,12.13
2022-11-29T01:14:14.415Z,11.65
2022-11-29T01:17:16.936Z,11.33
2022-11-29T01:20:19.726Z,10.25
2022-11-29T01:23:22.247Z,10.50
2022-11-29T01:26:27.682Z,10.75
2022-11-29T01:29:30.271Z,10.80
2022-11-29T01:32:32.513Z,10.32
2022-11-29T01:35:35.030Z,10.18
2022-11-29T01:38:37.685Z,9.95
2022-11-29T01:41:40.328Z,9.88
2022-11-29T01:44:46.187Z,10.77
2022-11-29T01:47:51.689Z,10.57
2022-11-29T01:50:57.369Z,10.02
2022-11-29T01:54:00.109Z,10.40
2022-11-29T01:57:05.794Z,9.82
2022-11-29T02:00:14.692Z,9.65
2022-11-29T02:03:18.219Z,9.23
2022-11-29T02:06:22.004Z,10.00
2022-11-29T02:09:24.241Z,9.25
2022-11-29T02:12:47.777Z,10.00
2022-11-29T02:16:02.767Z,9.85
2022-11-29T02:19:22.378Z,11.25
2022-11-29T02:22:40.182Z,10.73
2022-11-29T02:25:48.722Z,9.63
2022-11-29T02:29:15.685Z,9.60
2022-11-29T02:33:09.866Z,9.00
2022-11-29T02:36:18.082Z,9.07
2022-11-29T02:39:48.461Z,9.05
2022-11-29T02:43:02.472Z,10.60
2022-11-29T02:49:42.558Z,9.98
2022-11-29T02:52:53.196Z,9.02
2022-11-29T02:56:23.534Z,9.48
2022-11-29T02:59:41.133Z,9.20
2022-11-29T03:02:53.331Z,9.55
2022-11-29T03:06:12.263Z,8.57
2022-11-29T03:09:36.995Z,8.48
2022-11-29T03:12:43.782Z,8.15
2022-11-29T03:16:06.311Z,9.35
2022-11-29T03:19:26.878Z,9.13
2022-11-29T03:22:31.886Z,9.77
2022-11-29T03:25:44.026Z,10.02
2022-11-29T03:28:49.473Z,9.63
2022-11-29T03:32:00.080Z,9.18
2022-11-29T03:35:11.052Z,10.10
2022-11-29T03:38:32.246Z,9.32
2022-11-29T03:41:44.078Z,9.02
2022-11-29T03:45:02.375Z,9.65
2022-11-29T03:48:37.670Z,8.52
2022-11-29T03:51:54.648Z,10.25
2022-11-29T03:55:08.935Z,9.70
2022-11-29T03:58:26.278Z,9.30
2022-11-29T04:01:49.746Z,10.05
2022-11-29T04:05:34.503Z,9.60
2022-11-29T04:08:45.172Z,9.95
2022-11-29T04:12:22.329Z,9.75
2022-11-29T04:16:03.115Z,9.10
2022-11-29T04:19:23.123Z,10.10
2022-11-29T04:23:11.026Z,10.13
2022-11-29T04:26:58.344Z,9.40
2022-11-29T04:30:13.712Z,9.38
2022-11-29T04:33:34.585Z,9.13
2022-11-29T04:37:10.735Z,9.68
2022-11-29T04:40:16.140Z,10.32
2022-11-29T04:43:42.982Z,10.18
2022-11-29T04:47:20.058Z,10.25
2022-11-29T04:50:40.330Z,9.85
2022-11-29T04:54:06.798Z,9.85
2022-11-29T04:57:17.818Z,9.13
2022-11-29T05:00:23.847Z,9.93
2022-11-29T05:04:13.692Z,9.52
2022-11-29T05:07:33.352Z,8.57
2022-11-29T05:10:47.277Z,8.23
2022-11-29T05:14:30.252Z,8.07
2022-11-29T05:17:38.379Z,8.75
2022-11-29T05:21:00.314Z,9.40
2022-11-29T05:24:24.134Z,8.88
2022-11-29T05:27:44.329Z,8.98
2022-11-29T05:31:20.874Z,8.27
2022-11-29T05:34:42.369Z,9.02
2022-11-29T05:37:52.672Z,9.13
2022-11-29T05:41:16.573Z,9.77
2022-11-29T05:44:36.710Z,9.40
2022-11-29T05:47:46.737Z,8.55
2022-11-29T05:51:21.834Z,8.77
2022-11-29T05:54:56.738Z,8.93
2022-11-29T05:58:12.438Z,8.32
2022-11-29T06:01:21.439Z,8.80
2022-11-29T06:04:56.191Z,9.00
2022-11-29T06:08:12.314Z,9.40
2022-11-29T06:11:46.826Z,9.57
2022-11-29T06:15:06.428Z,9.63
2022-11-29T06:18:59.438Z,8.85
2022-11-29T06:22:39.896Z,9.27
2022-11-29T06:26:07.338Z,9.38
2022-11-29T06:29:29.630Z,9.25
2022-11-29T06:32:40.852Z,9.35
2022-11-29T06:35:50.537Z,9.40
2022-11-29T06:38:53.254Z,9.68
2022-11-29T06:41:55.648Z,9.35
2022-11-29T06:44:58.396Z,9.50
2022-11-29T06:48:06.388Z,9.85
2022-11-29T06:51:37.080Z,9.70
2022-11-29T06:54:42.680Z,9.27
2022-11-29T06:57:51.387Z,10.00
2022-11-29T07:01:18.040Z,9.80
2022-11-29T07:04:45.464Z,10.63
2022-11-29T07:07:48.874Z,9.82
2022-11-29T07:10:54.929Z,10.93
2022-11-29T07:13:57.459Z,11.80
2022-11-29T07:17:12.706Z,12.20
2022-11-29T07:20:46.963Z,12.07
2022-11-29T07:24:14.024Z,12.07
2022-11-29T07:27:23.969Z,10.10
2022-11-29T07:30:45.234Z,9.93
2022-11-29T07:34:26.305Z,10.43
2022-11-29T07:37:40.349Z,11.68
2022-11-29T07:40:53.137Z,10.68
2022-11-29T07:44:17.714Z,10.65
2022-11-29T07:47:19.930Z,9.90
2022-11-29T07:50:22.543Z,12.43
2022-11-29T07:53:25.045Z,12.37
2022-11-29T07:56:27.579Z,13.07
2022-11-29T07:59:29.851Z,12.85
2022-11-29T08:02:32.479Z,11.00
2022-11-29T08:05:36.577Z,11.65
2022-11-29T08:08:43.767Z,12.20
2022-11-29T08:11:46.930Z,11.50
2022-11-29T08:14:49.206Z,11.57
2022-11-29T08:17:53.149Z,11.00
2022-11-29T08:20:55.437Z,11.68
2022-11-29T08:23:58.021Z,12.10
2022-11-29T08:27:00.333Z,12.25
2022-11-29T08:30:04.221Z,12.75
2022-11-29T08:33:07.123Z,12.48
2022-11-29T08:36:11.149Z,13.20
2022-11-29T08:39:13.514Z,12.82
2022-11-29T08:42:16.170Z,13.02
2022-11-29T08:45:18.518Z,13.18
2022-11-29T08:48:21.034Z,13.77
2022-11-29T08:51:23.301Z,12.32
2022-11-29T08:54:25.831Z,12.43
2022-11-29T08:57:43.420Z,12.27
2022-11-29T09:00:49.286Z,12.35
2022-11-29T09:04:02.489Z,12.02
2022-11-29T09:07:05.096Z,12.77
2022-11-29T09:10:08.963Z,11.32
2022-11-29T09:13:12.592Z,11.82
2022-11-29T09:16:18.362Z,12.25
2022-11-29T09:19:20.990Z,11.93
2022-11-29T09:22:23.383Z,11.30
2022-11-29T09:25:26.242Z,12.57
2022-11-29T09:28:29.005Z,11.45
2022-11-29T09:31:32.753Z,11.75
2022-11-29T09:34:35.329Z,12.35
2022-11-29T09:37:41.466Z,12.30
2022-11-29T09:40:52.989Z,12.70
2022-11-29T09:44:09.035Z,12.45
2022-11-29T09:47:34.580Z,12.73
2022-11-29T09:50:44.875Z,12.60
2022-11-29T09:54:20.346Z,8.68
2022-11-29T09:57:25.166Z,9.07
2022-11-29T10:00:30.646Z,11.12
2022-11-29T10:03:39.976Z,8.70
2022-11-29T10:06:50.280Z,7.30
2022-11-29T10:10:09.297Z,6.53
2022-11-29T10:13:25.213Z,6.20
2022-11-29T10:16:42.791Z,26.65
2022-11-29T10:19:51.037Z,16.40
2022-11-29T10:23:12.099Z,16.52
2022-11-29T10:26:15.017Z,15.90
2022-11-29T10:29:17.552Z,16.30
2022-11-29T10:32:24.074Z,15.20
2022-11-29T10:35:27.429Z,15.38
2022-11-29T10:38:31.380Z,16.20
2022-11-29T10:41:35.693Z,16.12
2022-11-29T10:44:37.971Z,15.48
2022-11-29T10:47:40.879Z,17.58
2022-11-29T10:50:45.546Z,16.87
2022-11-29T10:53:49.542Z,15.65
2022-11-29T10:56:52.380Z,15.23
2022-11-29T11:00:06.983Z,14.57
2022-11-29T11:06:49.125Z,12.48
2022-11-29T11:09:55.874Z,13.13
2022-11-29T11:13:19.697Z,14.57
2022-11-29T11:16:24.569Z,14.68
2022-11-29T11:19:32.960Z,14.57
2022-11-29T11:22:39.940Z,15.85
2022-11-29T11:25:42.712Z,16.12
2022-11-29T11:28:55.478Z,14.30
2022-11-29T11:31:59.900Z,15.98
2022-11-29T11:35:02.706Z,15.48
2022-11-29T11:38:05.264Z,16.07
2022-11-29T11:41:07.623Z,15.68
2022-11-29T11:44:46.511Z,15.73
2022-11-29T11:47:52.785Z,14.98
2022-11-29T11:50:58.349Z,16.52
2022-11-29T11:54:00.598Z,16.27
2022-11-29T11:57:03.562Z,15.88
2022-11-29T12:00:07.309Z,14.95
2022-11-29T12:03:19.682Z,15.80
2022-11-29T12:06:28.713Z,14.90
2022-11-29T12:09:37.495Z,15.38
2022-11-29T12:12:43.810Z,14.87
2022-11-29T12:15:50.449Z,15.23
2022-11-29T12:18:59.543Z,15.57
2022-11-29T12:22:10.918Z,14.55
2022-11-29T12:25:20.706Z,16.12
2022-11-29T12:28:28.243Z,16.40
2022-11-29T12:31:36.888Z,17.12
2022-11-29T12:35:00.918Z,15.63
2022-11-29T12:38:25.166Z,15.88
2022-11-29T12:41:53.971Z,15.38
2022-11-29T12:45:30.596Z,14.45
2022-11-29T12:48:45.010Z,15.50
2022-11-29T12:52:30.588Z,15.48
2022-11-29T12:55:57.425Z,18.12
2022-11-29T12:59:11.774Z,20.77
2022-11-29T13:02:33.452Z,15.80
2022-11-29T13:05:57.616Z,15.13
2022-11-29T13:09:02.585Z,15.95
2022-11-29T13:12:26.622Z,15.80
2022-11-29T13:15:44.923Z,16.53
2022-11-29T13:18:57.744Z,16.35
2022-11-29T13:22:15.210Z,16.15
2022-11-29T13:25:23.850Z,15.80
2022-11-29T13:28:39.363Z,15.52
2022-11-29T13:31:43.098Z,16.35
2022-11-29T13:34:50.170Z,16.75
2022-11-29T13:38:07.949Z,16.70
2022-11-29T13:41:37.914Z,16.42
2022-11-29T13:44:52.851Z,16.12
2022-11-29T13:47:58.532Z,15.32
2022-11-29T13:51:25.411Z,16.42
2022-11-29T13:54:32.842Z,16.27
2022-11-29T14:01:15.062Z,16.37
2022-11-29T14:04:32.732Z,14.98
2022-11-29T14:07:36.030Z,15.65
2022-11-29T14:10:38.643Z,16.52
2022-11-29T14:14:02.222Z,16.50
2022-11-29T14:17:25.962Z,16.42
2022-11-29T14:20:28.681Z,15.10
2022-11-29T14:23:42.850Z,16.02
2022-11-29T14:26:45.124Z,15.55
2022-11-29T14:29:47.719Z,16.87
2022-11-29T14:32:58.370Z,16.12
2022-11-29T14:36:19.979Z,16.70
2022-11-29T14:39:27.312Z,15.85
2022-11-29T14:42:31.484Z,16.15
2022-11-29T14:45:35.171Z,16.00
2022-11-29T14:52:06.186Z,16.08
2022-11-29T14:55:14.859Z,17.15
2022-11-29T14:58:20.605Z,16.65
2022-11-29T15:01:23.760Z,17.27
2022-11-29T15:04:26.938Z,17.23
2022-11-29T15:07:31.915Z,18.05
2022-11-29T15:10:39.891Z,18.12
2022-11-29T15:13:59.126Z,17.33
2022-11-29T15:17:10.491Z,18.37
2022-11-29T15:20:12.928Z,17.60
2022-11-29T15:23:18.594Z,17.85
2022-11-29T15:26:21.743Z,18.55
2022-11-29T15:29:24.660Z,17.08
2022-11-29T15:32:31.202Z,19.33
2022-11-29T15:35:35.851Z,18.95
2022-11-29T15:38:59.171Z,18.85
2022-11-29T15:42:11.084Z,18.40
2022-11-29T15:45:32.286Z,18.92
2022-11-29T15:48:34.572Z,21.55
2022-11-29T15:51:38.623Z,19.12
2022-11-29T15:54:49.621Z,19.58
2022-11-29T15:57:55.367Z,18.05
2022-11-29T16:01:00.584Z,17.62
2022-11-29T16:04:03.614Z,18.65
2022-11-29T16:07:06.261Z,18.85
2022-11-29T16:10:16.607Z,20.62
2022-11-29T16:13:38.585Z,19.17
2022-11-29T16:16:44.106Z,19.30
2022-11-29T16:19:47.361Z,20.08
2022-11-29T16:23:13.354Z,19.75
2022-11-29T16:26:24.446Z,20.45
2022-11-29T16:29:30.322Z,18.85
2022-11-29T16:32:43.130Z,19.17
2022-11-29T16:35:45.723Z,18.60
2022-11-29T16:39:18.754Z,19.15
2022-11-29T16:42:25.742Z,18.35
2022-11-29T16:45:33.784Z,17.60
2022-11-29T16:48:38.318Z,18.67
2022-11-29T16:51:48.174Z,18.95
2022-11-29T16:54:51.461Z,18.58
2022-11-29T16:57:53.829Z,19.42
2022-11-29T17:00:56.729Z,19.52
2022-11-29T17:04:00.550Z,20.00
2022-11-29T17:10:13.407Z,18.70
2022-11-29T17:13:16.006Z,18.65
2022-11-29T17:16:21.028Z,19.87
2022-11-29T17:19:24.268Z,20.20
2022-11-29T17:22:26.605Z,20.02
2022-11-29T17:25:29.143Z,19.27
2022-11-29T17:28:31.742Z,18.20
2022-11-29T17:31:34.379Z,19.12
2022-11-29T17:34:36.691Z,19.75
2022-11-29T17:37:39.356Z,20.50
2022-11-29T17:40:41.565Z,18.95
2022-11-29T17:43:47.068Z,19.50
2022-11-29T17:46:49.357Z,20.73
2022-11-29T17:49:51.876Z,19.77
2022-11-29T17:52:54.167Z,19.92
2022-11-29T17:56:06.150Z,20.15
2022-11-29T17:59:08.528Z,20.02
2022-11-29T18:02:12.385Z,18.42
2022-11-29T18:05:15.078Z,19.12
2022-11-29T18:08:17.397Z,19.87
2022-11-29T18:11:40.317Z,20.10
2022-11-29T18:14:47.386Z,20.20
2022-11-29T18:17:49.888Z,20.88
2022-11-29T18:20:52.138Z,21.30
2022-11-29T18:23:55.184Z,21.67
2022-11-29T18:26:57.506Z,21.98
2022-11-29T18:30:00.079Z,21.08
2022-11-29T18:33:02.382Z,21.67
2022-11-29T18:36:09.835Z,22.55
2022-11-29T18:39:15.099Z,21.67
2022-11-29T18:42:17.683Z,22.77
2022-11-29T18:45:19.957Z,21.75
2022-11-29T18:48:22.505Z,23.15
2022-11-29T18:51:24.806Z,23.27
2022-11-29T18:54:29.158Z,21.33
2022-11-29T19:00:33.754Z,20.40
2022-11-29T19:03:38.848Z,22.20
2022-11-29T19:06:42.288Z,21.65
2022-11-29T19:09:44.541Z,22.60
2022-11-29T19:12:47.069Z,22.10
2022-11-29T19:15:53.675Z,21.75
2022-11-29T19:18:58.603Z,20.58
2022-11-29T19:22:01.040Z,20.25
2022-11-29T19:25:03.703Z,19.90
2022-11-29T19:28:12.576Z,23.00
2022-11-29T19:31:19.383Z,21.37
2022-11-29T19:34:21.746Z,21.27
2022-11-29T19:37:24.253Z,21.42
2022-11-29T19:40:26.875Z,20.17
2022-11-29T19:43:31.558Z,19.67
2022-11-29T19:46:37.125Z,20.60
2022-11-29T19:49:46.157Z,20.48
2022-11-29T19:52:51.150Z,19.90
2022-11-29T19:55:53.827Z,20.40
2022-11-29T19:58:56.706Z,20.95
2022-11-29T20:01:59.718Z,21.97
2022-11-29T20:05:02.582Z,20.17
2022-11-29T20:08:05.059Z,20.37
2022-11-29T20:11:26.626Z,20.65
2022-11-29T20:14:28.893Z,20.65
2022-11-29T20:17:31.606Z,20.83
2022-11-29T20:20:34.260Z,20.62
2022-11-29T20:23:40.194Z,19.27
2022-11-29T20:26:45.595Z,18.80
2022-11-29T20:29:48.637Z,18.45
2022-11-29T20:32:51.100Z,19.73
2022-11-29T20:36:06.656Z,18.87
2022-11-29T20:39:47.035Z,27.00
2022-11-29T20:43:02.945Z,20.42
2022-11-29T20:46:05.524Z,18.48
2022-11-29T20:49:08.534Z,18.95
2022-11-29T20:52:19.488Z,18.05
2022-11-29T20:55:22.154Z,18.30
2022-11-29T20:58:26.394Z,18.48
2022-11-29T21:01:28.958Z,19.42
2022-11-29T21:04:31.283Z,19.15
2022-11-29T21:07:34.293Z,18.65
2022-11-29T21:10:36.621Z,17.58
2022-11-29T21:13:41.587Z,21.00
2022-11-29T21:16:44.259Z,22.65
2022-11-29T21:19:47.129Z,19.58
2022-11-29T21:23:14.247Z,19.23
2022-11-29T21:26:23.114Z,19.90
2022-11-29T21:29:25.621Z,20.15
2022-11-29T21:32:28.361Z,19.73
2022-11-29T21:35:30.624Z,18.67
2022-11-29T21:38:33.235Z,19.83
2022-11-29T21:41:35.554Z,19.15
2022-11-29T21:44:40.272Z,19.87
2022-11-29T21:47:43.294Z,20.02
2022-11-29T21:50:50.239Z,21.35
2022-11-29T21:53:52.484Z,20.17
2022-11-29T21:56:55.764Z,18.85
2022-11-29T21:59:58.032Z,20.17
2022-11-29T22:03:02.445Z,18.58
2022-11-29T22:06:07.350Z,19.08
2022-11-29T22:09:09.690Z,19.60
2022-11-29T22:12:32.310Z,17.80
2022-11-29T22:15:34.634Z,19.77
2022-11-29T22:18:37.384Z,18.48
2022-11-29T22:21:40.626Z,20.42
2022-11-29T22:24:43.147Z,19.05
2022-11-29T22:27:45.479Z,19.23
2022-11-29T22:30:48.019Z,19.77
2022-11-29T22:33:54.044Z,19.25
2022-11-29T22:36:56.751Z,17.90
2022-11-29T22:39:58.991Z,19.67
2022-11-29T22:43:01.803Z,19.52
2022-11-29T22:46:20.358Z,19.52
2022-11-29T22:49:22.977Z,19.20
2022-11-29T22:52:25.396Z,18.27
2022-11-29T22:55:27.978Z,18.08
2022-11-29T22:58:30.371Z,19.20
2022-11-29T23:01:35.328Z,19.60
2022-11-29T23:04:37.529Z,18.92
2022-11-29T23:07:40.332Z,18.58
2022-11-29T23:10:42.581Z,19.75
2022-11-29T23:13:45.621Z,20.50
2022-11-29T23:16:47.898Z,18.83
2022-11-29T23:19:51.995Z,19.90
2022-11-29T23:22:54.197Z,19.62
2022-11-29T23:25:58.142Z,19.87
2022-11-29T23:32:03.417Z,18.92
2022-11-29T23:35:06.063Z,19.27
2022-11-29T23:38:08.839Z,19.77
2022-11-29T23:41:11.745Z,19.25
2022-11-29T23:44:14.231Z,19.03
2022-11-29T23:47:16.449Z,18.90
2022-11-29T23:50:18.968Z,19.30
2022-11-29T23:53:21.202Z,19.37
2022-11-29T23:56:23.737Z,19.73
2022-11-29T23:59:25.949Z,19.65
